createdAt,value
2022-12-04T00:00:45.166Z,2.80
2022-12-04T00:03:11.678Z,2.80
2022-12-04T00:05:38.186Z,2.80
2022-12-04T00:08:04.706Z,2.80
2022-12-04T00:10:31.327Z,2.80
2022-12-04T00:12:58.673Z,2.90
2022-12-04T00:15:26.716Z,2.80
2022-12-04T00:17:53.493Z,2.80
2022-12-04T00:20:19.988Z,2.90
2022-12-04T00:22:46.490Z,2.90
2022-12-04T00:25:12.972Z,2.80
2022-12-04T00:27:39.413Z,2.80
2022-12-04T00:30:06.354Z,2.80
2022-12-04T00:32:32.839Z,2.80
2022-12-04T00:34:59.286Z,2.80
2022-12-04T00:37:25.769Z,2.80
2022-12-04T00:39:52.319Z,2.70
2022-12-04T00:42:18.934Z,2.70
2022-12-04T00:44:45.426Z,2.70
2022-12-04T00:47:11.866Z,2.70
2022-12-04T00:49:38.325Z,2.70
2022-12-04T00:52:04.970Z,2.70
2022-12-04T00:54:31.453Z,2.70
2022-12-04T00:56:57.964Z,2.70
2022-12-04T00:59:24.410Z,2.70
2022-12-04T01:01:50.895Z,2.70
2022-12-04T01:04:17.318Z,2.70
2022-12-04T01:06:43.847Z,2.70
2022-12-04T01:09:10.335Z,2.70
2022-12-04T01:11:36.912Z,2.70
2022-12-04T01:14:03.498Z,2.70
2022-12-04T01:16:39.507Z,2.70
2022-12-04T01:19:07.647Z,2.80
2022-12-04T01:21:34.589Z,2.70
2022-12-04T01:24:01.158Z,2.70
2022-12-04T01:26:27.863Z,2.60
2022-12-04T01:28:54.355Z,2.60
2022-12-04T01:31:21.642Z,2.60
2022-12-04T01:33:48.677Z,2.60
2022-12-04T01:36:16.887Z,2.60
2022-12-04T01:38:43.611Z,2.60
2022-12-04T01:41:11.130Z,2.60
2022-12-04T01:43:38.338Z,2.60
2022-12-04T01:46:05.548Z,2.60
2022-12-04T01:48:37.385Z,2.60
2022-12-04T01:51:03.783Z,2.60
2022-12-04T01:53:30.779Z,2.60
2022-12-04T01:55:57.386Z,2.60
2022-12-04T01:58:26.601Z,2.70
2022-12-04T02:00:58.249Z,2.60
2022-12-04T02:03:24.993Z,2.60
2022-12-04T02:05:51.465Z,2.50
2022-12-04T02:08:18.139Z,2.50
2022-12-04T02:10:44.679Z,2.50
2022-12-04T02:13:20.643Z,2.50
2022-12-04T02:15:54.312Z,2.50
2022-12-04T02:18:20.743Z,2.50
2022-12-04T02:20:49.990Z,2.50
2022-12-04T02:23:25.400Z,2.50
2022-12-04T02:25:51.892Z,2.50
2022-12-04T02:28:34.719Z,2.50
2022-12-04T02:31:02.501Z,2.50
2022-12-04T02:33:42.496Z,2.50
2022-12-04T02:36:22.761Z,2.50
2022-12-04T02:39:05.494Z,2.60
2022-12-04T02:41:53.236Z,2.60
2022-12-04T02:44:23.836Z,2.60
2022-12-04T02:46:52.901Z,2.60
2022-12-04T02:49:21.825Z,2.60
2022-12-04T02:51:49.276Z,2.60
2022-12-04T02:54:28.379Z,2.60
2022-12-04T02:56:55.163Z,2.60
2022-12-04T02:59:36.109Z,2.60
2022-12-04T03:02:07.243Z,2.60
2022-12-04T03:04:34.202Z,2.60
2022-12-04T03:07:04.525Z,2.60
2022-12-04T03:09:37.832Z,2.60
2022-12-04T03:12:19.713Z,2.60
2022-12-04T03:14:51.085Z,2.60
2022-12-04T03:17:23.771Z,2.60
2022-12-04T03:19:51.633Z,2.60
2022-12-04T03:22:19.454Z,2.50
2022-12-04T03:24:49.901Z,2.50
2022-12-04T03:27:19.087Z,2.60
2022-12-04T03:30:08.981Z,2.60
2022-12-04T03:32:44.592Z,2.60
2022-12-04T03:35:14.079Z,2.60
2022-12-04T03:37:43.515Z,2.60
2022-12-04T03:40:19.288Z,2.60
2022-12-04T03:42:48.210Z,2.60
2022-12-04T03:45:14.621Z,2.60
2022-12-04T03:47:45.360Z,2.60
2022-12-04T03:50:32.050Z,2.60
2022-12-04T03:53:18.771Z,2.60
2022-12-04T03:55:50.192Z,2.60
2022-12-04T03:58:19.682Z,2.60
2022-12-04T04:00:47.560Z,2.60
2022-12-04T04:03:22.448Z,2.60
2022-12-04T04:05:50.465Z,2.60
2022-12-04T04:08:30.750Z,2.60
2022-12-04T04:11:10.336Z,2.60
2022-12-04T04:13:58.285Z,2.60
2022-12-04T04:16:44.728Z,2.60
2022-12-04T04:19:30.776Z,2.60
2022-12-04T04:22:16.747Z,2.60
2022-12-04T04:24:45.338Z,2.60
2022-12-04T04:27:12.228Z,2.60
2022-12-04T04:29:39.052Z,2.50
2022-12-04T04:32:12.920Z,2.50
2022-12-04T04:35:00.352Z,2.50
2022-12-04T04:37:45.404Z,2.50
2022-12-04T04:40:11.934Z,2.50
2022-12-04T04:42:54.186Z,2.60
2022-12-04T04:45:23.336Z,2.60
2022-12-04T04:48:04.295Z,2.60
2022-12-04T04:50:32.262Z,2.60
2022-12-04T04:53:04.730Z,2.60
2022-12-04T04:55:34.511Z,2.60
2022-12-04T04:58:08.148Z,2.60
2022-12-04T05:00:34.654Z,2.60
2022-12-04T05:03:01.201Z,2.60
2022-12-04T05:05:27.742Z,2.60
2022-12-04T05:07:54.305Z,2.60
2022-12-04T05:10:20.767Z,2.60
2022-12-04T05:12:47.240Z,2.60
2022-12-04T05:15:13.815Z,2.60
2022-12-04T05:17:40.268Z,2.60
2022-12-04T05:20:07.022Z,2.60
2022-12-04T05:22:34.369Z,2.60
2022-12-04T05:25:01.041Z,2.60
2022-12-04T05:27:28.607Z,2.70
2022-12-04T05:29:56.715Z,2.70
2022-12-04T05:32:24.453Z,2.60
2022-12-04T05:34:51.709Z,2.60
2022-12-04T05:37:18.671Z,2.60
2022-12-04T05:39:45.400Z,2.60
2022-12-04T05:42:12.402Z,2.60
2022-12-04T05:44:39.078Z,2.60
2022-12-04T05:47:06.412Z,2.60
2022-12-04T05:49:33.543Z,2.50
2022-12-04T05:52:00.470Z,2.50
2022-12-04T05:54:26.937Z,2.50
2022-12-04T05:56:53.596Z,2.50
2022-12-04T05:59:20.191Z,2.50
2022-12-04T06:01:46.700Z,2.50
2022-12-04T06:04:13.416Z,2.50
2022-12-04T06:06:39.920Z,2.50
2022-12-04T06:09:07.403Z,2.50
2022-12-04T06:11:35.789Z,2.40
2022-12-04T06:14:03.306Z,2.50
2022-12-04T06:16:31.178Z,2.50
2022-12-04T06:18:59.635Z,2.40
2022-12-04T06:21:27.610Z,2.50
2022-12-04T06:23:54.575Z,2.40
2022-12-04T06:26:21.661Z,2.40
2022-12-04T06:28:48.318Z,2.40
2022-12-04T06:31:15.977Z,2.40
2022-12-04T06:33:42.761Z,2.40
2022-12-04T06:36:11.798Z,2.40
2022-12-04T06:38:38.854Z,2.40
2022-12-04T06:41:06.796Z,2.40
2022-12-04T06:43:33.423Z,2.40
2022-12-04T06:46:04.748Z,2.40
2022-12-04T06:48:31.662Z,2.40
2022-12-04T06:51:06.444Z,2.40
2022-12-04T06:53:33.470Z,2.40
2022-12-04T06:56:01.515Z,2.40
2022-12-04T06:58:28.567Z,2.40
2022-12-04T07:00:55.629Z,2.40
2022-12-04T07:03:22.771Z,2.40
2022-12-04T07:05:49.537Z,2.40
2022-12-04T07:08:16.417Z,2.40
2022-12-04T07:10:43.216Z,2.40
2022-12-04T07:13:10.162Z,2.30
2022-12-04T07:15:37.447Z,2.30
2022-12-04T07:18:04.447Z,2.30
2022-12-04T07:20:31.000Z,2.30
2022-12-04T07:23:00.267Z,2.30
2022-12-04T07:25:29.519Z,2.40
2022-12-04T07:27:56.400Z,2.40
2022-12-04T07:30:23.088Z,2.40
2022-12-04T07:32:49.622Z,2.30
2022-12-04T07:35:16.146Z,2.30
2022-12-04T07:37:42.677Z,2.40
2022-12-04T07:40:09.343Z,2.40
2022-12-04T07:42:35.821Z,2.40
2022-12-04T07:45:02.338Z,2.40
2022-12-04T07:47:28.836Z,2.40
2022-12-04T07:49:55.774Z,2.40
2022-12-04T07:52:22.394Z,2.40
2022-12-04T07:54:48.943Z,2.40
2022-12-04T07:57:15.457Z,2.40
2022-12-04T07:59:41.951Z,2.40
2022-12-04T08:02:08.544Z,2.40
2022-12-04T08:04:36.443Z,2.40
2022-12-04T08:07:02.989Z,2.50
2022-12-04T08:09:32.388Z,2.50
2022-12-04T08:11:58.936Z,2.50
2022-12-04T08:14:25.434Z,2.50
2022-12-04T08:16:53.058Z,2.50
2022-12-04T08:19:19.819Z,2.50
2022-12-04T08:21:46.281Z,2.60
2022-12-04T08:24:12.799Z,2.60
2022-12-04T08:26:39.296Z,2.60
2022-12-04T08:29:05.913Z,2.60
2022-12-04T08:31:33.991Z,2.60
2022-12-04T08:34:02.550Z,2.70
2022-12-04T08:36:29.452Z,2.70
2022-12-04T08:38:56.433Z,2.70
2022-12-04T08:41:24.594Z,2.70
2022-12-04T08:43:53.546Z,2.80
2022-12-04T08:46:20.208Z,2.80
2022-12-04T08:48:47.190Z,2.90
2022-12-04T08:51:15.120Z,2.90
2022-12-04T08:53:41.570Z,3.00
2022-12-04T08:56:08.630Z,3.00
2022-12-04T08:58:35.221Z,2.90
2022-12-04T09:01:06.161Z,2.90
2022-12-04T09:03:32.669Z,2.90
2022-12-04T09:05:59.991Z,2.90
2022-12-04T09:08:26.471Z,2.90
2022-12-04T09:10:53.176Z,2.90
2022-12-04T09:13:19.620Z,2.90
2022-12-04T09:15:46.190Z,2.90
2022-12-04T09:18:12.699Z,2.90
2022-12-04T09:20:39.381Z,2.90
2022-12-04T09:23:05.933Z,2.90
2022-12-04T09:25:35.133Z,2.90
2022-12-04T09:28:01.617Z,2.90
2022-12-04T09:30:28.152Z,3.00
2022-12-04T09:32:54.636Z,3.00
2022-12-04T09:35:21.090Z,3.00
2022-12-04T09:37:47.581Z,3.00
2022-12-04T09:40:24.983Z,3.00
2022-12-04T09:43:03.838Z,3.10
2022-12-04T09:45:42.242Z,3.20
2022-12-04T09:48:10.999Z,3.20
2022-12-04T09:50:40.614Z,3.30
2022-12-04T09:53:18.311Z,3.40
2022-12-04T09:56:00.033Z,3.40
2022-12-04T09:58:36.000Z,3.50
2022-12-04T10:01:03.230Z,3.50
2022-12-04T10:03:30.516Z,3.60
2022-12-04T10:06:10.992Z,3.60
2022-12-04T10:08:37.537Z,3.60
2022-12-04T10:11:13.807Z,3.60
2022-12-04T10:13:58.721Z,3.60
2022-12-04T10:16:33.353Z,3.70
2022-12-04T10:19:16.069Z,3.70
2022-12-04T10:21:49.378Z,3.70
2022-12-04T10:24:15.815Z,3.80
2022-12-04T10:26:46.708Z,3.70
2022-12-04T10:29:21.314Z,3.70
2022-12-04T10:31:49.066Z,3.70
2022-12-04T10:34:25.207Z,3.70
2022-12-04T10:36:58.866Z,3.70
2022-12-04T10:39:26.687Z,3.70
2022-12-04T10:42:11.740Z,3.70
2022-12-04T10:44:38.547Z,3.70
2022-12-04T10:47:06.283Z,3.70
2022-12-04T10:49:34.069Z,3.80
2022-12-04T10:52:00.836Z,3.80
2022-12-04T10:54:27.270Z,3.90
2022-12-04T10:56:55.111Z,3.90
2022-12-04T10:59:21.805Z,3.90
2022-12-04T11:01:49.225Z,3.90
2022-12-04T11:04:20.919Z,4.00
2022-12-04T11:06:49.795Z,3.90
2022-12-04T11:09:24.674Z,4.00
2022-12-04T11:11:51.938Z,4.00
2022-12-04T11:14:22.538Z,4.00
2022-12-04T11:16:59.309Z,4.10
2022-12-04T11:19:27.445Z,4.10
2022-12-04T11:21:55.274Z,4.10
2022-12-04T11:24:23.358Z,4.10
2022-12-04T11:26:50.417Z,4.20
2022-12-04T11:29:18.689Z,4.20
2022-12-04T11:31:52.896Z,4.10
2022-12-04T11:34:21.062Z,4.10
2022-12-04T11:36:50.603Z,4.10
2022-12-04T11:39:23.491Z,4.20
2022-12-04T11:42:06.734Z,4.20
2022-12-04T11:44:34.624Z,4.20
2022-12-04T11:47:02.584Z,4.30
2022-12-04T11:49:30.152Z,4.20
2022-12-04T11:52:05.665Z,4.20
2022-12-04T11:54:43.070Z,4.20
2022-12-04T11:57:21.465Z,4.30
2022-12-04T11:59:55.404Z,4.30
2022-12-04T12:02:38.420Z,4.30
2022-12-04T12:05:24.049Z,4.30
2022-12-04T12:08:02.574Z,4.40
2022-12-04T12:10:43.123Z,4.40
2022-12-04T12:13:35.434Z,4.40
2022-12-04T12:16:08.008Z,4.40
2022-12-04T12:18:49.564Z,4.40
2022-12-04T12:21:21.921Z,4.40
2022-12-04T12:24:01.356Z,4.40
2022-12-04T12:26:34.304Z,4.40
2022-12-04T12:29:00.842Z,4.30
2022-12-04T12:31:49.843Z,4.30
2022-12-04T12:34:20.999Z,4.20
2022-12-04T12:36:49.854Z,4.20
2022-12-04T12:39:20.025Z,4.10
2022-12-04T12:41:53.737Z,4.10
2022-12-04T12:44:23.335Z,4.10
2022-12-04T12:46:55.040Z,4.10
2022-12-04T12:49:41.804Z,4.20
2022-12-04T12:52:11.347Z,4.20
2022-12-04T12:54:43.907Z,4.20
2022-12-04T12:57:13.475Z,4.20
2022-12-04T12:59:43.795Z,4.10
2022-12-04T13:02:26.215Z,4.10
2022-12-04T13:04:55.323Z,4.10
2022-12-04T13:07:26.063Z,4.10
2022-12-04T13:09:58.821Z,4.10
2022-12-04T13:12:26.833Z,4.10
2022-12-04T13:14:53.527Z,4.00
2022-12-04T13:17:35.539Z,4.00
2022-12-04T13:20:09.538Z,4.00
2022-12-04T13:22:52.076Z,4.00
2022-12-04T13:25:19.407Z,4.00
2022-12-04T13:27:54.751Z,4.10
2022-12-04T13:30:23.197Z,4.10
2022-12-04T13:32:58.484Z,4.10
2022-12-04T13:35:36.204Z,4.10
2022-12-04T13:38:02.686Z,4.00
2022-12-04T13:40:32.676Z,4.00
2022-12-04T13:43:18.640Z,4.10
2022-12-04T13:45:46.411Z,4.10
2022-12-04T13:48:13.130Z,4.10
2022-12-04T13:50:40.176Z,4.10
2022-12-04T13:53:06.917Z,4.10
2022-12-04T13:55:37.691Z,4.10
2022-12-04T13:58:04.245Z,4.00
2022-12-04T14:00:35.028Z,4.00
2022-12-04T14:03:04.782Z,4.00
2022-12-04T14:05:33.762Z,4.00
2022-12-04T14:08:07.306Z,4.00
2022-12-04T14:10:36.465Z,4.00
2022-12-04T14:13:05.488Z,4.00
2022-12-04T14:15:33.400Z,4.00
2022-12-04T14:18:02.517Z,4.00
2022-12-04T14:20:30.703Z,3.90
2022-12-04T14:23:07.201Z,3.90
2022-12-04T14:25:36.192Z,3.90
2022-12-04T14:28:12.576Z,4.00
2022-12-04T14:30:39.551Z,3.90
2022-12-04T14:33:13.890Z,3.90
2022-12-04T14:35:45.680Z,3.90
2022-12-04T14:38:16.718Z,3.90
2022-12-04T14:40:45.370Z,3.90
2022-12-04T14:43:17.371Z,3.90
2022-12-04T14:45:46.601Z,3.90
2022-12-04T14:48:13.140Z,3.90
2022-12-04T14:50:48.248Z,3.80
2022-12-04T14:53:14.810Z,3.80
2022-12-04T14:55:51.212Z,3.80
2022-12-04T14:58:31.420Z,3.80
2022-12-04T15:01:05.392Z,3.80
2022-12-04T15:03:35.437Z,3.80
2022-12-04T15:06:04.086Z,3.80
2022-12-04T15:08:30.668Z,3.80
2022-12-04T15:11:15.847Z,3.70
2022-12-04T15:13:42.415Z,3.70
2022-12-04T15:16:19.406Z,3.70
2022-12-04T15:18:59.287Z,3.70
2022-12-04T15:21:39.579Z,3.70
2022-12-04T15:24:09.936Z,3.70
2022-12-04T15:26:37.286Z,3.70
2022-12-04T15:29:06.116Z,3.70
2022-12-04T15:31:32.692Z,3.70
2022-12-04T15:34:01.224Z,3.70
2022-12-04T15:36:39.178Z,3.70
2022-12-04T15:39:05.921Z,3.70
2022-12-04T15:41:33.997Z,3.70
2022-12-04T15:44:00.993Z,3.70
2022-12-04T15:46:35.358Z,3.70
2022-12-04T15:49:16.752Z,3.60
2022-12-04T15:51:47.069Z,3.70
2022-12-04T15:54:16.006Z,3.70
2022-12-04T15:56:42.574Z,3.70
2022-12-04T15:59:15.923Z,3.70
2022-12-04T16:01:42.508Z,3.60
2022-12-04T16:04:19.326Z,3.70
2022-12-04T16:06:47.236Z,3.70
2022-12-04T16:09:22.557Z,3.70
2022-12-04T16:12:02.827Z,3.60
2022-12-04T16:14:29.538Z,3.60
2022-12-04T16:17:05.523Z,3.60
2022-12-04T16:19:33.033Z,3.60
2022-12-04T16:22:00.479Z,3.60
2022-12-04T16:24:27.195Z,3.60
2022-12-04T16:26:57.071Z,3.60
2022-12-04T16:29:23.781Z,3.60
2022-12-04T16:31:51.001Z,3.60
2022-12-04T16:34:17.985Z,3.60
2022-12-04T16:36:44.640Z,3.60
2022-12-04T16:39:11.200Z,3.60
2022-12-04T16:41:37.763Z,3.60
2022-12-04T16:44:09.251Z,3.60
2022-12-04T16:46:35.959Z,3.60
2022-12-04T16:49:07.277Z,3.60
2022-12-04T16:51:37.314Z,3.60
2022-12-04T16:54:03.961Z,3.50
2022-12-04T16:56:30.521Z,3.50
2022-12-04T16:58:57.082Z,3.50
2022-12-04T17:01:25.674Z,3.50
2022-12-04T17:03:52.594Z,3.50
2022-12-04T17:06:19.259Z,3.50
2022-12-04T17:08:45.792Z,3.60
2022-12-04T17:11:13.210Z,3.60
2022-12-04T17:13:39.771Z,3.60
2022-12-04T17:16:06.420Z,3.60
2022-12-04T17:18:33.029Z,3.60
2022-12-04T17:20:59.540Z,3.50
2022-12-04T17:23:27.172Z,3.50
2022-12-04T17:25:53.723Z,3.50
2022-12-04T17:28:20.457Z,3.50
2022-12-04T17:30:47.135Z,3.50
2022-12-04T17:33:13.708Z,3.50
2022-12-04T17:35:43.921Z,3.40
2022-12-04T17:38:10.536Z,3.40
2022-12-04T17:40:37.227Z,3.40
2022-12-04T17:43:03.779Z,3.40
2022-12-04T17:45:30.348Z,3.40
2022-12-04T17:47:56.809Z,3.40
2022-12-04T17:50:23.277Z,3.40
2022-12-04T17:52:49.878Z,3.40
2022-12-04T17:55:16.571Z,3.40
2022-12-04T17:57:43.080Z,3.40
2022-12-04T18:00:09.966Z,3.30
2022-12-04T18:02:36.579Z,3.30
2022-12-04T18:05:03.170Z,3.30
2022-12-04T18:07:30.685Z,3.30
2022-12-04T18:09:57.631Z,3.30
2022-12-04T18:12:24.397Z,3.30
2022-12-04T18:14:50.874Z,3.30
2022-12-04T18:17:17.554Z,3.30
2022-12-04T18:19:44.130Z,3.30
2022-12-04T18:22:10.697Z,3.30
2022-12-04T18:24:37.307Z,3.30
2022-12-04T18:27:03.958Z,3.30
2022-12-04T18:29:30.587Z,3.30
2022-12-04T18:31:57.299Z,3.30
2022-12-04T18:34:24.001Z,3.30
2022-12-04T18:36:50.708Z,3.30
2022-12-04T18:39:21.574Z,3.30
2022-12-04T18:41:48.353Z,3.30
2022-12-04T18:44:15.439Z,3.30
2022-12-04T18:46:42.045Z,3.30
2022-12-04T18:49:09.832Z,3.30
2022-12-04T18:51:40.502Z,3.30
2022-12-04T18:54:09.729Z,3.40
2022-12-04T18:56:36.501Z,3.40
2022-12-04T18:59:13.079Z,3.30
2022-12-04T19:01:40.232Z,3.30
2022-12-04T19:04:07.716Z,3.40
2022-12-04T19:06:38.927Z,3.40
2022-12-04T19:09:11.018Z,3.40
2022-12-04T19:11:38.024Z,3.40
2022-12-04T19:14:12.542Z,3.40
2022-12-04T19:16:43.648Z,3.40
2022-12-04T19:19:13.974Z,3.40
2022-12-04T19:21:40.706Z,3.40
2022-12-04T19:24:08.075Z,3.40
2022-12-04T19:26:34.842Z,3.40
2022-12-04T19:29:01.804Z,3.40
2022-12-04T19:31:31.566Z,3.40
2022-12-04T19:33:58.145Z,3.40
2022-12-04T19:36:25.265Z,3.50
2022-12-04T19:38:53.423Z,3.50
2022-12-04T19:41:24.168Z,3.50
2022-12-04T19:43:52.604Z,3.60
2022-12-04T19:46:22.316Z,3.60
2022-12-04T19:48:50.090Z,3.80
2022-12-04T19:51:18.049Z,3.90
2022-12-04T19:53:45.601Z,4.00
2022-12-04T19:56:19.356Z,4.10
2022-12-04T19:58:46.336Z,4.10
2022-12-04T20:01:17.579Z,4.10
2022-12-04T20:03:44.306Z,4.10
2022-12-04T20:06:12.880Z,4.10
2022-12-04T20:08:39.635Z,4.10
2022-12-04T20:11:07.782Z,4.10
2022-12-04T20:13:34.993Z,4.00
2022-12-04T20:16:02.585Z,4.00
2022-12-04T20:18:29.215Z,3.90
2022-12-04T20:20:56.101Z,3.90
2022-12-04T20:23:22.739Z,3.80
2022-12-04T20:25:49.381Z,3.80
2022-12-04T20:28:16.284Z,3.80
2022-12-04T20:30:42.977Z,3.70
2022-12-04T20:33:09.568Z,3.80
2022-12-04T20:35:36.365Z,3.70
2022-12-04T20:38:03.633Z,3.80
2022-12-04T20:40:30.446Z,3.70
2022-12-04T20:42:57.575Z,3.70
2022-12-04T20:45:24.206Z,3.70
2022-12-04T20:47:50.846Z,3.70
2022-12-04T20:50:17.373Z,3.70
2022-12-04T20:52:44.020Z,3.70
2022-12-04T20:55:10.613Z,3.70
2022-12-04T20:57:37.804Z,3.70
2022-12-04T21:00:05.136Z,3.70
2022-12-04T21:02:31.810Z,3.70
2022-12-04T21:04:59.019Z,3.70
2022-12-04T21:07:25.523Z,3.70
2022-12-04T21:09:52.293Z,3.70
2022-12-04T21:12:43.042Z,3.70
2022-12-04T21:15:28.901Z,3.70
2022-12-04T21:17:55.459Z,3.70
2022-12-04T21:20:22.011Z,3.70
2022-12-04T21:22:48.488Z,3.70
2022-12-04T21:25:15.349Z,3.70
2022-12-04T21:27:41.875Z,3.70
2022-12-04T21:30:08.777Z,3.70
2022-12-04T21:32:35.379Z,3.70
2022-12-04T21:35:02.005Z,3.70
2022-12-04T21:37:28.483Z,3.70
2022-12-04T21:39:55.339Z,3.70
2022-12-04T21:42:31.375Z,3.70
2022-12-04T21:45:01.569Z,3.70
2022-12-04T21:47:28.468Z,3.70
2022-12-04T21:49:55.231Z,3.60
2022-12-04T21:52:22.116Z,3.60
2022-12-04T21:54:49.735Z,3.60
2022-12-04T21:57:16.240Z,3.50
2022-12-04T21:59:42.779Z,3.50
2022-12-04T22:02:10.511Z,3.50
2022-12-04T22:04:37.121Z,3.50
2022-12-04T22:07:03.623Z,3.50
2022-12-04T22:09:30.108Z,3.50
2022-12-04T22:11:56.662Z,3.50
2022-12-04T22:14:23.307Z,3.50
2022-12-04T22:16:50.857Z,3.40
2022-12-04T22:19:17.435Z,3.40
2022-12-04T22:21:44.136Z,3.30
2022-12-04T22:24:10.859Z,3.30
2022-12-04T22:26:37.917Z,3.30
2022-12-04T22:29:20.848Z,3.30
2022-12-04T22:31:51.694Z,3.30
2022-12-04T22:34:18.283Z,3.30
2022-12-04T22:36:44.852Z,3.30
2022-12-04T22:39:11.573Z,3.30
2022-12-04T22:41:38.524Z,3.30
2022-12-04T22:44:05.157Z,3.30
2022-12-04T22:46:32.123Z,3.30
2022-12-04T22:48:59.414Z,3.30
2022-12-04T22:51:26.914Z,3.30
2022-12-04T22:53:54.371Z,3.30
2022-12-04T22:56:24.990Z,3.30
2022-12-04T22:58:51.688Z,3.20
2022-12-04T23:01:19.648Z,3.20
2022-12-04T23:03:46.741Z,3.20
2022-12-04T23:06:13.795Z,3.20
2022-12-04T23:08:41.074Z,3.20
2022-12-04T23:11:10.341Z,3.20
2022-12-04T23:13:36.999Z,3.20
2022-12-04T23:16:09.317Z,3.20
2022-12-04T23:18:36.348Z,3.20
2022-12-04T23:21:06.934Z,3.10
2022-12-04T23:23:34.391Z,3.20
2022-12-04T23:26:01.739Z,3.20
2022-12-04T23:28:28.344Z,3.20
2022-12-04T23:30:54.871Z,3.20
2022-12-04T23:33:21.597Z,3.20
2022-12-04T23:35:52.386Z,3.10
2022-12-04T23:38:19.042Z,3.10
2022-12-04T23:40:45.620Z,3.10
2022-12-04T23:43:12.207Z,3.20
2022-12-04T23:45:38.898Z,3.20
2022-12-04T23:48:05.639Z,3.20
2022-12-04T23:50:32.217Z,3.10
2022-12-04T23:52:58.709Z,3.10
2022-12-04T23:55:28.570Z,3.10
2022-12-04T23:57:57.548Z,3.10
